Archival Weather

Chicago O'Hare International

Chicago, Illinois (KORD)

Report from: Wednesday, September 6, 2023 10:51 PM CDT
Current time: Wednesday, May 29, 2024 8:17 PM CDT

Current weather – Weather history – Daily summaries
Weather forecast

Temperature21.7°C (71.1°F)
Dew point19.4°C (66.9°F)
Winds 9 kts (4.6 m/s, 10.4 mph) West (260°)
Visibility10 mi. (16.1 km)
Clouds Few clouds 1,600 ft. (488 m)
Ceiling: Broken clouds 2,400 ft. (732 m)
Overcast 3,800 ft. (1,158 m)
Altimeter29.80 in.Hg (1009 mB)
PrecipitiationTrace
Precip. events Rain ended 3:03 AM
Relative humidity87 %
Density altitude1,248 ft. (380 m)
Sea-level pressure100.9 kPa (1009 mB, 29.78 in.Hg)
Remarks Automated weather observing station with precipitation discriminator
Flight conditions Marginal Visual Meteorological Conditions
Raw dataKORD 070351Z 26009KT 10SM FEW016 BKN024 OVC038 22/19 A2980 RMK AO2 RAE03 SLP085 P0000 T02170194
An error has occurred. This application may no longer respond until reloaded. Reload 🗙